createdAt,value
2018-10-16T00:02:15.397Z,11.08
2018-10-16T00:04:51.214Z,11.28
2018-10-16T00:07:23.308Z,11.63
2018-10-16T00:09:55.409Z,11.57
2018-10-16T00:12:27.493Z,11.60
2018-10-16T00:14:59.628Z,11.65
2018-10-16T00:17:31.694Z,11.74
2018-10-16T00:20:04.370Z,11.63
2018-10-16T00:22:36.541Z,11.05
2018-10-16T00:25:12.571Z,10.71
2018-10-16T00:27:44.903Z,10.41
2018-10-16T00:30:17.057Z,10.25
2018-10-16T00:32:49.270Z,10.45
2018-10-16T00:35:21.327Z,10.52
2018-10-16T00:37:53.415Z,10.92
2018-10-16T00:40:25.537Z,10.43
2018-10-16T00:42:57.708Z,10.14
2018-10-16T00:45:29.750Z,9.98
2018-10-16T00:48:01.843Z,10.11
2018-10-16T00:50:33.974Z,9.84
2018-10-16T00:53:06.131Z,10.26
2018-10-16T00:55:38.139Z,10.41
2018-10-16T00:58:10.254Z,10.66
2018-10-16T01:00:42.374Z,10.80
2018-10-16T01:03:14.470Z,10.86
2018-10-16T01:05:47.508Z,10.17
2018-10-16T01:08:19.598Z,10.18
2018-10-16T01:10:51.705Z,10.21
2018-10-16T01:13:23.787Z,10.39
2018-10-16T01:15:55.920Z,10.11
2018-10-16T01:18:28.074Z,10.09
2018-10-16T01:21:00.554Z,9.84
2018-10-16T01:23:32.603Z,9.97
2018-10-16T01:26:04.706Z,9.84
2018-10-16T01:28:36.842Z,9.93
2018-10-16T01:31:09.286Z,10.13
2018-10-16T01:33:41.928Z,10.16
2018-10-16T01:36:14.049Z,10.39
2018-10-16T01:38:46.129Z,10.47
2018-10-16T01:41:18.204Z,10.73
2018-10-16T01:43:50.365Z,10.96
2018-10-16T01:46:22.427Z,11.11
2018-10-16T01:48:54.537Z,10.92
2018-10-16T01:51:26.644Z,11.14
2018-10-16T01:53:58.732Z,11.11
2018-10-16T01:56:30.825Z,10.62
2018-10-16T01:59:02.994Z,10.30
2018-10-16T02:01:35.010Z,10.12
2018-10-16T02:04:07.083Z,10.00
2018-10-16T02:06:39.202Z,10.08
2018-10-16T02:09:13.292Z,10.70
2018-10-16T02:11:45.391Z,10.00
2018-10-16T02:14:17.475Z,9.98
2018-10-16T02:16:49.570Z,10.38
2018-10-16T02:19:21.663Z,10.52
2018-10-16T02:21:53.770Z,10.59
2018-10-16T02:24:25.870Z,10.62
2018-10-16T02:26:58.062Z,10.87
2018-10-16T02:29:30.572Z,10.78
2018-10-16T02:32:02.740Z,10.50
2018-10-16T02:34:34.895Z,10.64
2018-10-16T02:37:07.356Z,10.53
2018-10-16T02:39:39.594Z,10.61
2018-10-16T02:42:11.722Z,10.70
2018-10-16T02:44:43.796Z,10.70
2018-10-16T02:47:15.995Z,10.93
2018-10-16T02:49:51.287Z,10.75
2018-10-16T02:52:23.409Z,10.58
2018-10-16T02:54:55.588Z,10.97
2018-10-16T02:57:27.862Z,10.87
2018-10-16T03:00:00.502Z,10.77
2018-10-16T03:02:32.630Z,10.76
2018-10-16T03:05:04.718Z,10.51
2018-10-16T03:07:36.803Z,10.39
2018-10-16T03:10:09.346Z,10.49
2018-10-16T03:12:41.346Z,10.73
2018-10-16T03:15:14.703Z,10.60
2018-10-16T03:17:46.892Z,10.27
2018-10-16T03:20:19.004Z,10.27
2018-10-16T03:22:50.998Z,10.20
2018-10-16T03:25:23.061Z,10.24
2018-10-16T03:27:55.192Z,10.43
2018-10-16T03:30:27.290Z,10.63
2018-10-16T03:32:59.481Z,10.77
2018-10-16T03:35:31.564Z,10.35
2018-10-16T03:38:03.815Z,10.62
2018-10-16T03:40:36.006Z,10.66
2018-10-16T03:43:08.048Z,10.18
2018-10-16T03:45:40.149Z,9.84
2018-10-16T03:48:12.281Z,9.72
2018-10-16T03:50:44.360Z,10.08
2018-10-16T03:53:16.450Z,9.66
2018-10-16T03:55:48.609Z,9.74
2018-10-16T03:58:20.710Z,10.42
2018-10-16T04:00:52.824Z,10.40
2018-10-16T04:03:25.644Z,9.93
2018-10-16T04:05:57.704Z,9.90
2018-10-16T04:08:29.846Z,10.36
2018-10-16T04:11:02.000Z,10.22
2018-10-16T04:13:34.034Z,10.44
2018-10-16T04:16:06.424Z,10.57
2018-10-16T04:18:38.446Z,10.09
2018-10-16T04:21:11.282Z,10.09
2018-10-16T04:23:44.093Z,10.34
2018-10-16T04:26:16.334Z,10.01
2018-10-16T04:28:48.348Z,9.89
2018-10-16T04:31:20.524Z,10.12
2018-10-16T04:33:55.615Z,10.44
2018-10-16T04:36:27.758Z,10.35
2018-10-16T04:39:00.300Z,10.10
2018-10-16T04:41:32.489Z,10.30
2018-10-16T04:44:07.590Z,9.94
2018-10-16T04:46:39.678Z,10.28
2018-10-16T04:49:11.770Z,10.25
2018-10-16T04:51:43.845Z,10.29
2018-10-16T04:54:16.029Z,10.05
2018-10-16T04:56:48.145Z,10.24
2018-10-16T04:59:20.285Z,10.13
2018-10-16T05:01:52.584Z,10.28
2018-10-16T05:04:24.631Z,9.95
2018-10-16T05:06:56.729Z,10.33
2018-10-16T05:09:28.877Z,10.44
2018-10-16T05:12:01.006Z,9.91
2018-10-16T05:14:33.133Z,10.21
2018-10-16T05:17:05.230Z,10.23
2018-10-16T05:19:37.396Z,10.36
2018-10-16T05:22:09.621Z,10.47
2018-10-16T05:24:41.749Z,10.56
2018-10-16T05:27:16.566Z,10.51
2018-10-16T05:29:48.745Z,10.39
2018-10-16T05:32:20.814Z,10.40
2018-10-16T05:34:53.043Z,10.31
2018-10-16T05:37:25.171Z,10.49
2018-10-16T05:39:57.297Z,10.33
2018-10-16T05:42:29.403Z,10.02
2018-10-16T05:45:01.603Z,10.09
2018-10-16T05:47:33.630Z,10.13
2018-10-16T05:50:05.789Z,9.83
2018-10-16T05:52:38.092Z,9.76
2018-10-16T05:55:11.010Z,9.71
2018-10-16T05:57:43.133Z,9.58
2018-10-16T06:00:44.155Z,9.78
2018-10-16T06:03:16.241Z,9.53
2018-10-16T06:05:48.474Z,9.47
2018-10-16T06:08:20.463Z,9.92
2018-10-16T06:10:52.673Z,9.33
2018-10-16T06:13:24.669Z,9.26
2018-10-16T06:15:56.858Z,9.59
2018-10-16T06:18:28.861Z,9.92
2018-10-16T06:21:00.974Z,9.65
2018-10-16T06:23:33.065Z,9.39
2018-10-16T06:26:05.173Z,9.92
2018-10-16T06:28:37.335Z,9.66
2018-10-16T06:31:09.541Z,9.63
2018-10-16T06:33:41.645Z,9.67
2018-10-16T06:36:16.484Z,9.78
2018-10-16T06:38:46.082Z,9.82
2018-10-16T06:41:18.351Z,9.84
2018-10-16T06:43:50.361Z,9.94
2018-10-16T06:46:22.617Z,10.01
2018-10-16T06:48:55.364Z,10.13
2018-10-16T06:51:27.235Z,10.38
2018-10-16T06:53:59.370Z,10.61
2018-10-16T06:56:31.572Z,10.93
2018-10-16T06:59:03.692Z,10.92
2018-10-16T07:01:35.850Z,11.53
2018-10-16T07:04:08.682Z,11.52
2018-10-16T07:06:40.860Z,11.51
2018-10-16T07:09:12.952Z,11.79
2018-10-16T07:11:45.621Z,11.73
2018-10-16T07:14:17.726Z,11.95
2018-10-16T07:16:51.901Z,12.11
2018-10-16T07:19:24.247Z,12.17
2018-10-16T07:21:56.773Z,12.41
2018-10-16T07:24:29.060Z,12.49
2018-10-16T07:27:01.361Z,12.71
2018-10-16T07:29:33.514Z,12.88
2018-10-16T07:32:06.300Z,12.98
2018-10-16T07:34:38.556Z,13.03
2018-10-16T07:37:10.692Z,13.16
2018-10-16T07:39:42.856Z,13.47
2018-10-16T07:42:15.162Z,13.53
2018-10-16T07:44:47.203Z,13.74
2018-10-16T07:47:19.518Z,13.85
2018-10-16T07:49:52.152Z,13.86
2018-10-16T07:52:24.376Z,13.99
2018-10-16T07:54:58.972Z,14.17
2018-10-16T07:57:31.100Z,14.00
2018-10-16T08:00:03.340Z,14.28
2018-10-16T08:02:35.584Z,14.57
2018-10-16T08:05:08.912Z,14.61
2018-10-16T08:07:41.784Z,14.82
2018-10-16T08:10:14.832Z,14.99
2018-10-16T08:12:47.028Z,15.07
2018-10-16T08:15:19.330Z,15.12
2018-10-16T08:17:51.632Z,15.26
2018-10-16T08:20:23.876Z,15.37
2018-10-16T08:22:56.210Z,15.64
2018-10-16T08:25:28.506Z,15.67
2018-10-16T08:28:00.894Z,15.64
2018-10-16T08:30:33.137Z,15.85
2018-10-16T08:33:05.331Z,15.94
2018-10-16T08:35:40.037Z,16.01
2018-10-16T08:38:56.733Z,16.04
2018-10-16T08:41:47.653Z,16.07
2018-10-16T08:45:25.875Z,16.23
2018-10-16T08:49:02.465Z,16.23
2018-10-16T08:51:50.052Z,16.38
2018-10-16T08:54:22.495Z,16.38
2018-10-16T08:56:54.704Z,16.36
2018-10-16T08:59:27.258Z,16.44
2018-10-16T09:02:01.094Z,16.55
2018-10-16T09:04:31.626Z,16.51
2018-10-16T09:07:03.778Z,16.65
2018-10-16T09:09:35.908Z,16.83
2018-10-16T09:12:08.341Z,16.88
2018-10-16T09:14:40.518Z,16.86
2018-10-16T09:17:12.608Z,16.73
2018-10-16T09:19:45.152Z,16.65
2018-10-16T09:22:17.418Z,16.96
2018-10-16T09:24:49.561Z,17.16
2018-10-16T09:27:21.674Z,17.30
2018-10-16T09:29:53.893Z,17.41
2018-10-16T09:32:28.836Z,17.63
2018-10-16T09:35:01.229Z,17.60
2018-10-16T09:37:33.729Z,17.65
2018-10-16T09:40:06.457Z,17.73
2018-10-16T09:42:38.741Z,17.93
2018-10-16T09:45:12.054Z,18.00
2018-10-16T09:47:44.270Z,17.99
2018-10-16T09:50:16.389Z,18.12
2018-10-16T09:52:48.570Z,18.21
2018-10-16T09:55:20.741Z,18.15
2018-10-16T09:57:55.118Z,18.23
2018-10-16T10:00:44.665Z,18.19
2018-10-16T10:03:16.753Z,18.31
2018-10-16T10:05:48.893Z,18.37
2018-10-16T10:08:21.117Z,18.47
2018-10-16T10:10:53.435Z,18.48
2018-10-16T10:13:26.053Z,18.55
2018-10-16T10:15:58.693Z,18.65
2018-10-16T10:18:33.289Z,18.75
2018-10-16T10:21:05.404Z,18.80
2018-10-16T10:23:37.547Z,18.90
2018-10-16T10:26:09.703Z,18.82
2018-10-16T10:28:41.842Z,18.78
2018-10-16T10:31:14.030Z,18.84
2018-10-16T10:33:46.146Z,19.05
2018-10-16T10:36:18.308Z,18.92
2018-10-16T10:38:50.449Z,19.11
2018-10-16T10:41:25.719Z,19.23
2018-10-16T10:43:57.922Z,19.10
2018-10-16T10:46:33.551Z,19.11
2018-10-16T10:49:04.051Z,19.29
2018-10-16T10:51:36.507Z,19.40
2018-10-16T10:54:09.096Z,19.31
2018-10-16T10:56:41.537Z,19.20
2018-10-16T10:59:13.504Z,19.37
2018-10-16T11:01:45.890Z,19.44
2018-10-16T11:04:18.049Z,19.68
2018-10-16T11:06:51.062Z,19.70
2018-10-16T11:09:23.318Z,19.76
2018-10-16T11:11:56.514Z,19.99
2018-10-16T11:14:29.314Z,20.00
2018-10-16T11:17:04.285Z,19.89
2018-10-16T11:19:36.503Z,19.93
2018-10-16T11:22:08.671Z,19.69
2018-10-16T11:24:40.981Z,20.06
2018-10-16T11:27:13.151Z,19.95
2018-10-16T11:29:45.221Z,19.85
2018-10-16T11:32:17.383Z,19.81
2018-10-16T11:34:49.534Z,20.12
2018-10-16T11:37:21.696Z,20.19
2018-10-16T11:39:53.877Z,20.42
2018-10-16T11:42:28.293Z,20.40
2018-10-16T11:45:00.553Z,20.47
2018-10-16T11:47:33.004Z,20.51
2018-10-16T11:50:05.488Z,20.34
2018-10-16T11:52:37.624Z,20.16
2018-10-16T11:55:10.519Z,20.01
2018-10-16T11:57:42.737Z,20.22
2018-10-16T12:00:19.034Z,20.51
2018-10-16T12:02:51.109Z,20.47
2018-10-16T12:05:23.434Z,20.42
2018-10-16T12:07:55.787Z,20.53
2018-10-16T12:10:27.897Z,20.46
2018-10-16T12:13:00.107Z,20.64
2018-10-16T12:15:32.237Z,20.61
2018-10-16T12:18:10.290Z,20.81
2018-10-16T12:21:01.069Z,20.61
2018-10-16T12:23:33.236Z,20.78
2018-10-16T12:26:05.440Z,20.71
2018-10-16T12:28:37.545Z,20.84
2018-10-16T12:31:09.897Z,20.79
2018-10-16T12:33:42.019Z,20.83
2018-10-16T12:36:14.166Z,20.79
2018-10-16T12:38:46.446Z,20.97
2018-10-16T12:41:18.550Z,20.84
2018-10-16T12:43:50.704Z,20.80
2018-10-16T12:46:22.853Z,20.98
2018-10-16T12:48:55.049Z,20.84
2018-10-16T12:51:27.306Z,20.85
2018-10-16T12:53:59.584Z,21.06
2018-10-16T12:56:31.738Z,20.90
2018-10-16T12:59:04.364Z,20.98
2018-10-16T13:01:45.661Z,20.80
2018-10-16T13:04:17.875Z,20.92
2018-10-16T13:06:49.905Z,20.98
2018-10-16T13:09:22.588Z,21.07
2018-10-16T13:11:54.681Z,21.23
2018-10-16T13:14:26.932Z,21.35
2018-10-16T13:16:59.178Z,21.39
2018-10-16T13:19:31.559Z,21.47
2018-10-16T13:22:03.831Z,21.33
2018-10-16T13:24:36.095Z,21.31
2018-10-16T13:27:08.475Z,21.34
2018-10-16T13:29:40.817Z,21.28
2018-10-16T13:32:12.797Z,20.87
2018-10-16T13:34:44.984Z,21.05
2018-10-16T13:37:17.187Z,21.40
2018-10-16T13:39:49.304Z,21.04
2018-10-16T13:42:21.548Z,21.23
2018-10-16T13:44:53.817Z,21.34
2018-10-16T13:47:28.656Z,21.35
2018-10-16T13:50:01.033Z,21.35
2018-10-16T13:52:33.126Z,21.48
2018-10-16T13:55:05.300Z,21.66
2018-10-16T13:57:39.691Z,21.43
2018-10-16T14:00:17.283Z,21.43
2018-10-16T14:02:50.894Z,21.48
2018-10-16T14:05:23.131Z,21.48
2018-10-16T14:07:55.302Z,21.42
2018-10-16T14:10:27.388Z,21.64
2018-10-16T14:13:02.848Z,21.52
2018-10-16T14:15:32.390Z,21.55
2018-10-16T14:18:04.389Z,21.66
2018-10-16T14:20:36.582Z,21.74
2018-10-16T14:23:08.865Z,21.63
2018-10-16T14:25:41.177Z,21.71
2018-10-16T14:28:15.317Z,21.77
2018-10-16T14:30:49.948Z,21.69
2018-10-16T14:33:22.044Z,21.29
2018-10-16T14:35:54.190Z,21.52
2018-10-16T14:38:26.391Z,21.61
2018-10-16T14:40:58.621Z,21.60
2018-10-16T14:43:30.871Z,21.60
2018-10-16T14:46:03.832Z,21.63
2018-10-16T14:48:36.098Z,21.76
2018-10-16T14:51:08.421Z,21.61
2018-10-16T14:53:40.532Z,21.68
2018-10-16T14:56:12.886Z,21.50
2018-10-16T14:58:44.990Z,21.57
2018-10-16T15:01:17.261Z,21.59
2018-10-16T15:03:49.477Z,21.46
2018-10-16T15:06:22.182Z,21.49
2018-10-16T15:08:54.364Z,21.42
2018-10-16T15:11:26.602Z,21.54
2018-10-16T15:13:59.105Z,21.63
2018-10-16T15:16:31.251Z,21.67
2018-10-16T15:19:03.398Z,21.66
2018-10-16T15:21:35.604Z,21.52
2018-10-16T15:24:08.155Z,21.42
2018-10-16T15:26:40.222Z,21.37
2018-10-16T15:29:12.395Z,21.28
2018-10-16T15:31:44.577Z,21.35
2018-10-16T15:34:16.717Z,21.28
2018-10-16T15:36:48.949Z,20.99
2018-10-16T15:39:21.117Z,21.03
2018-10-16T15:41:53.336Z,20.92
2018-10-16T15:44:25.498Z,20.79
2018-10-16T15:46:57.620Z,20.76
2018-10-16T15:49:35.145Z,20.54
2018-10-16T15:52:07.836Z,20.39
2018-10-16T15:54:39.950Z,20.10
2018-10-16T15:57:12.523Z,20.06
2018-10-16T15:59:44.584Z,19.94
2018-10-16T16:02:16.717Z,19.73
2018-10-16T16:04:48.881Z,19.58
2018-10-16T16:07:23.311Z,19.33
2018-10-16T16:09:55.469Z,19.20
2018-10-16T16:12:27.644Z,19.16
2018-10-16T16:15:00.193Z,18.90
2018-10-16T16:17:32.302Z,18.83
2018-10-16T16:20:04.459Z,18.64
2018-10-16T16:22:36.637Z,18.65
2018-10-16T16:25:13.280Z,18.38
2018-10-16T16:27:45.393Z,18.22
2018-10-16T16:30:17.983Z,18.21
2018-10-16T16:32:50.281Z,17.95
2018-10-16T16:35:25.106Z,17.97
2018-10-16T16:37:57.542Z,17.82
2018-10-16T16:40:29.635Z,17.66
2018-10-16T16:43:01.847Z,17.47
2018-10-16T16:45:34.052Z,17.16
2018-10-16T16:48:06.541Z,17.02
2018-10-16T16:50:38.718Z,16.88
2018-10-16T16:53:10.920Z,16.80
2018-10-16T16:55:42.979Z,16.71
2018-10-16T16:58:15.212Z,16.70
2018-10-16T17:00:47.255Z,16.58
2018-10-16T17:03:19.397Z,16.66
2018-10-16T17:05:51.747Z,16.73
2018-10-16T17:08:23.972Z,16.53
2018-10-16T17:10:56.177Z,16.53
2018-10-16T17:13:28.312Z,16.21
2018-10-16T17:16:00.479Z,16.01
2018-10-16T17:18:32.731Z,15.88
2018-10-16T17:21:05.190Z,15.59
2018-10-16T17:23:37.579Z,15.49
2018-10-16T17:26:09.975Z,15.49
2018-10-16T17:28:42.005Z,15.36
2018-10-16T17:31:14.052Z,15.44
2018-10-16T17:33:46.204Z,15.30
2018-10-16T17:36:20.862Z,15.36
2018-10-16T17:38:53.063Z,15.19
2018-10-16T17:41:25.322Z,15.06
2018-10-16T17:43:57.439Z,14.87
2018-10-16T17:46:29.664Z,14.90
2018-10-16T17:49:01.714Z,14.98
2018-10-16T17:51:34.359Z,14.80
2018-10-16T17:54:06.765Z,14.59
2018-10-16T17:56:38.866Z,14.61
2018-10-16T17:59:11.127Z,14.48
2018-10-16T18:01:43.484Z,14.44
2018-10-16T18:04:15.666Z,14.45
2018-10-16T18:06:47.937Z,14.22
2018-10-16T18:09:20.148Z,14.18
2018-10-16T18:11:52.349Z,14.03
2018-10-16T18:14:24.510Z,14.15
2018-10-16T18:16:56.618Z,14.24
2018-10-16T18:19:29.051Z,14.15
2018-10-16T18:22:01.237Z,14.13
2018-10-16T18:24:33.378Z,14.01
2018-10-16T18:27:08.926Z,13.88
2018-10-16T18:29:41.947Z,13.75
2018-10-16T18:32:13.964Z,13.60
2018-10-16T18:34:46.092Z,13.50
2018-10-16T18:37:18.174Z,13.55
2018-10-16T18:39:50.341Z,13.51
2018-10-16T18:42:22.663Z,13.48
2018-10-16T18:44:54.726Z,13.38
2018-10-16T18:47:26.810Z,13.20
2018-10-16T18:49:58.966Z,13.12
2018-10-16T18:52:31.081Z,13.09
2018-10-16T18:55:03.241Z,13.10
2018-10-16T18:57:35.343Z,12.91
2018-10-16T19:00:08.788Z,13.01
2018-10-16T19:02:41.069Z,13.14
2018-10-16T19:05:13.188Z,13.14
2018-10-16T19:07:45.369Z,13.11
2018-10-16T19:10:17.399Z,12.99
2018-10-16T19:12:49.543Z,12.94
2018-10-16T19:15:21.643Z,12.93
2018-10-16T19:17:53.733Z,12.81
2018-10-16T19:20:25.842Z,12.75
2018-10-16T19:22:57.971Z,12.83
2018-10-16T19:25:30.104Z,12.68
2018-10-16T19:28:02.252Z,12.62
2018-10-16T19:30:34.398Z,12.56
2018-10-16T19:33:06.550Z,12.42
2018-10-16T19:35:38.665Z,12.51
2018-10-16T19:38:10.766Z,12.52
2018-10-16T19:40:45.855Z,12.49
2018-10-16T19:43:17.962Z,12.56
2018-10-16T19:45:50.168Z,12.43
2018-10-16T19:48:22.278Z,12.29
2018-10-16T19:50:54.636Z,12.28
2018-10-16T19:53:28.827Z,12.10
2018-10-16T19:56:00.966Z,11.93
2018-10-16T19:58:33.055Z,11.94
2018-10-16T20:01:05.321Z,12.04
2018-10-16T20:03:37.425Z,11.99
2018-10-16T20:06:09.553Z,12.00
2018-10-16T20:08:41.711Z,12.14
2018-10-16T20:11:13.800Z,12.11
2018-10-16T20:13:45.901Z,11.96
2018-10-16T20:16:18.048Z,11.98
2018-10-16T20:18:50.244Z,11.80
2018-10-16T20:21:22.302Z,11.61
2018-10-16T20:23:56.488Z,11.58
2018-10-16T20:26:27.057Z,11.80
2018-10-16T20:28:59.084Z,11.79
2018-10-16T20:31:31.324Z,11.71
2018-10-16T20:34:03.322Z,11.90
2018-10-16T20:36:35.614Z,11.80
2018-10-16T20:39:12.988Z,11.69
2018-10-16T20:41:45.224Z,11.70
2018-10-16T20:44:17.290Z,11.64
2018-10-16T20:46:49.329Z,11.69
2018-10-16T20:49:21.425Z,11.64
2018-10-16T20:51:55.760Z,11.62
2018-10-16T20:54:27.852Z,11.57
2018-10-16T20:57:00.144Z,11.48
2018-10-16T20:59:32.142Z,11.52
2018-10-16T21:02:05.780Z,11.54
2018-10-16T21:04:37.943Z,11.50
2018-10-16T21:07:10.073Z,11.54
2018-10-16T21:09:42.130Z,11.42
2018-10-16T21:12:15.012Z,11.17
2018-10-16T21:14:47.060Z,11.25
2018-10-16T21:17:19.203Z,11.21
2018-10-16T21:19:51.271Z,11.26
2018-10-16T21:22:23.374Z,11.12
2018-10-16T21:24:55.470Z,11.00
2018-10-16T21:27:27.561Z,11.13
2018-10-16T21:29:59.631Z,11.03
2018-10-16T21:32:31.849Z,11.08
2018-10-16T21:35:04.003Z,10.94
2018-10-16T21:37:36.015Z,10.86
2018-10-16T21:40:09.290Z,10.81
2018-10-16T21:42:44.351Z,10.74
2018-10-16T21:45:16.449Z,10.91
2018-10-16T21:47:48.579Z,10.88
2018-10-16T21:50:20.678Z,10.96
2018-10-16T21:52:52.809Z,10.85
2018-10-16T21:55:24.883Z,10.84
2018-10-16T21:57:57.032Z,10.83
2018-10-16T22:00:46.550Z,10.72
2018-10-16T22:03:18.745Z,10.70
2018-10-16T22:05:50.798Z,10.66
2018-10-16T22:08:23.017Z,10.65
2018-10-16T22:10:55.039Z,10.83
2018-10-16T22:13:27.136Z,10.59
2018-10-16T22:15:59.228Z,10.65
2018-10-16T22:18:31.349Z,10.67
2018-10-16T22:21:03.511Z,10.58
2018-10-16T22:23:35.611Z,10.58
2018-10-16T22:26:07.606Z,10.63
2018-10-16T22:28:39.779Z,10.82
2018-10-16T22:31:11.928Z,10.63
2018-10-16T22:33:43.915Z,10.56
2018-10-16T22:36:16.052Z,10.67
2018-10-16T22:38:48.161Z,10.70
2018-10-16T22:41:20.545Z,10.66
2018-10-16T22:43:53.082Z,10.68
2018-10-16T22:46:28.020Z,10.63
2018-10-16T22:49:00.138Z,10.62
2018-10-16T22:51:32.271Z,10.49
2018-10-16T22:54:06.956Z,10.27
2018-10-16T22:56:39.027Z,10.21
2018-10-16T22:59:11.217Z,10.34
2018-10-16T23:01:43.234Z,10.41
2018-10-16T23:04:15.367Z,10.39
2018-10-16T23:06:47.450Z,10.42
2018-10-16T23:09:19.558Z,10.49
2018-10-16T23:11:51.645Z,10.46
2018-10-16T23:14:23.752Z,10.41
2018-10-16T23:16:55.891Z,10.47
2018-10-16T23:19:27.951Z,10.45
2018-10-16T23:22:00.046Z,10.38
2018-10-16T23:24:32.264Z,10.50
2018-10-16T23:27:04.254Z,10.45
2018-10-16T23:29:36.392Z,10.42
2018-10-16T23:32:08.676Z,10.55
2018-10-16T23:34:40.895Z,10.52
2018-10-16T23:37:13.025Z,10.48
2018-10-16T23:39:47.398Z,10.45
2018-10-16T23:42:19.595Z,10.38
2018-10-16T23:44:51.602Z,10.44
2018-10-16T23:47:23.694Z,10.45
2018-10-16T23:49:55.892Z,10.40
2018-10-16T23:52:27.909Z,10.28
2018-10-16T23:55:00.291Z,10.32
2018-10-16T23:57:32.260Z,10.29
